Airfield :
LOGIN :

Register | Disclaimer

   EN    FR    IT 

 










Legend :    VFR   Marginal VFR   IFR   Intensive IFR   Very Intensive IFR
Visi :
Ceiling :
>= 8 km
>= 3000ft
5 to 8 km
1000 to 3000 ft
1500m to 5 km
500 to 1000 ft
800 to 1500m
200 to 500 ft
< 800m
< 200 ft
Symbols :   Thunderstorms  Fog  Heavy snow  Heavy precipitations  Wind > 20 kt
SIGMETs :     Misc.  Thunderstorms  Icing  Turbulence  Mountain Waves  Volcanic Ashes






- Airport Elevation : 348 ft
- IATA code : LDV


LFRJ - Landivisiau

CURRENT METAR :
  • 281330Z AUTO 24022KT 9999 BKN022 BKN029 OVC078 14/10 Q1009 TEMPO 4000 SHRA SCT015TCU BECMG 24017G28KT

EXPIRED METARs :
  • 281300Z AUTO 24021KT 9999 BKN024 BKN033 OVC082 14/09 Q1009 TEMPO 4000 SHRA SCT015TCU BECMG 24017G28KT
  • 281230Z AUTO 25021KT 9999 BKN025 BKN074 OVC180 14/09 Q1009 TEMPO 4000 SHRA SCT015TCU BECMG 24017G28KT
  • 281200Z AUTO 24022G33KT 9999 BKN021 BKN027 OVC082 14/10 Q1009 TEMPO 4000 SHRA SCT015TCU
  • 281130Z AUTO 24019KT 9999 FEW021 OVC088 13/10 Q1009 TEMPO 4000 SHRA SCT015TCU BECMG 24017G28KT
  • 281100Z AUTO 24021KT 9999 FEW022 BKN098 OVC110 13/09 Q1009 TEMPO 24015G27KT 4000 SHRA SCT010CB SCT015TCU

TAF TAF LFRJ
Valid from the 28 at 12:00 until the 28 at 21:00 UTC


281100Z 2812/2821 24017G28KT 9999 FEW020 BKN100
TEMPO 2812/2821 4000 SHRA SCT015TCU
BECMG 2818/2820 24015KT



MET'MAP, your aeronautical weather chart ! - Copyright ORBIFLY December 2007 - Disclaimer

ORBIFLY MET'MAP TEAM :

Programming & Development : Alexandra Zaïnal
Concept & original design : Baudouin d'Aumeries
Assistance for programming : Marc-Olivier Méhu
Technical & hardware support : Manuel Goepfert

Contact : metmap@orbifly.com




SOURCES & CREDITS :

   NOAA